createdAt,value
2022-07-30T00:01:36.004Z,52.49
2022-07-30T00:04:04.420Z,50.67
2022-07-30T00:06:32.754Z,50.95
2022-07-30T00:09:00.245Z,52.44
2022-07-30T00:11:28.318Z,50.36
2022-07-30T00:13:56.107Z,50.82
2022-07-30T00:16:23.739Z,51.91
2022-07-30T00:18:51.665Z,51.65
2022-07-30T00:21:20.355Z,52.08
2022-07-30T00:24:04.645Z,52.13
2022-07-30T00:26:32.069Z,52.15
2022-07-30T00:28:59.930Z,51.59
2022-07-30T00:31:29.361Z,51.23
2022-07-30T00:33:57.101Z,51.44
2022-07-30T00:36:24.591Z,50.95
2022-07-30T00:38:52.309Z,51.93
2022-07-30T00:41:20.294Z,53.05
2022-07-30T00:43:48.032Z,52.22
2022-07-30T00:46:15.812Z,51.70
2022-07-30T00:48:43.633Z,53.30
2022-07-30T00:51:11.203Z,53.06
2022-07-30T00:53:39.092Z,53.55
2022-07-30T00:56:07.209Z,53.17
2022-07-30T00:58:35.346Z,52.21
2022-07-30T01:01:03.826Z,53.06
2022-07-30T01:03:31.253Z,53.11
2022-07-30T01:05:58.799Z,53.24
2022-07-30T01:08:26.449Z,52.48
2022-07-30T01:10:54.015Z,53.62
2022-07-30T01:13:21.517Z,54.49
2022-07-30T01:15:49.210Z,53.54
2022-07-30T01:18:17.546Z,54.03
2022-07-30T01:21:06.048Z,54.46
2022-07-30T01:23:43.286Z,54.52
2022-07-30T01:26:18.492Z,54.71
2022-07-30T01:28:50.486Z,54.50
2022-07-30T01:31:18.878Z,55.33
2022-07-30T01:33:49.024Z,54.75
2022-07-30T01:36:17.871Z,53.92
2022-07-30T01:38:46.452Z,53.88
2022-07-30T01:41:15.684Z,52.67
2022-07-30T01:43:43.735Z,52.69
2022-07-30T01:46:11.500Z,53.08
2022-07-30T01:48:41.428Z,54.90
2022-07-30T01:51:11.923Z,53.49
2022-07-30T01:53:41.740Z,53.46
2022-07-30T01:56:12.188Z,53.22
2022-07-30T01:58:40.639Z,53.71
2022-07-30T02:01:08.741Z,55.47
2022-07-30T02:03:36.721Z,54.40
2022-07-30T02:06:12.342Z,55.68
2022-07-30T02:08:40.981Z,54.88
2022-07-30T02:11:10.210Z,55.09
2022-07-30T02:13:44.863Z,54.87
2022-07-30T02:16:20.779Z,55.35
2022-07-30T02:19:04.332Z,55.36
2022-07-30T02:21:39.229Z,56.96
2022-07-30T02:24:11.128Z,55.93
2022-07-30T02:26:39.800Z,55.91
2022-07-30T02:29:11.362Z,56.04
2022-07-30T02:31:40.610Z,56.38
2022-07-30T02:34:09.027Z,57.31
2022-07-30T02:36:37.304Z,55.37
2022-07-30T02:39:06.368Z,58.02
2022-07-30T02:41:36.624Z,57.88
2022-07-30T02:44:04.635Z,58.83
2022-07-30T02:46:32.700Z,59.45
2022-07-30T02:49:02.685Z,59.04
2022-07-30T02:51:31.111Z,59.06
2022-07-30T02:54:00.424Z,58.01
2022-07-30T02:56:28.642Z,56.89
2022-07-30T02:58:56.990Z,57.86
2022-07-30T03:01:26.662Z,60.01
2022-07-30T03:03:54.512Z,59.11
2022-07-30T03:06:24.997Z,59.09
2022-07-30T03:08:53.877Z,59.25
2022-07-30T03:11:22.129Z,58.89
2022-07-30T03:13:50.278Z,58.39
2022-07-30T03:16:19.972Z,59.56
2022-07-30T03:18:47.818Z,58.78
2022-07-30T03:21:16.162Z,59.90
2022-07-30T03:23:44.519Z,58.88
2022-07-30T03:26:13.013Z,59.86
2022-07-30T03:28:41.201Z,59.16
2022-07-30T03:31:10.653Z,60.10
2022-07-30T03:33:39.967Z,60.36
2022-07-30T03:36:09.274Z,59.99
2022-07-30T03:38:38.035Z,60.99
2022-07-30T03:41:07.252Z,60.90
2022-07-30T03:43:35.533Z,59.71
2022-07-30T03:46:03.752Z,60.72
2022-07-30T03:48:34.123Z,60.90
2022-07-30T03:51:07.601Z,59.73
2022-07-30T03:53:35.691Z,60.33
2022-07-30T03:56:07.408Z,60.10
2022-07-30T03:58:43.491Z,61.81
2022-07-30T04:01:11.167Z,61.45
2022-07-30T04:03:39.085Z,60.90
2022-07-30T04:06:06.772Z,61.65
2022-07-30T04:08:34.556Z,60.39
2022-07-30T04:11:03.452Z,61.07
2022-07-30T04:13:31.451Z,61.13
2022-07-30T04:16:37.798Z,60.84
2022-07-30T04:18:52.053Z,61.98
2022-07-30T04:21:21.090Z,61.99
2022-07-30T04:24:03.022Z,61.55
2022-07-30T04:26:35.642Z,61.36
2022-07-30T04:29:06.725Z,61.03
2022-07-30T04:31:38.211Z,61.45
2022-07-30T04:34:14.082Z,61.79
2022-07-30T04:36:42.518Z,62.26
2022-07-30T04:39:10.980Z,62.71
2022-07-30T04:41:48.632Z,63.22
2022-07-30T04:44:20.173Z,62.41
2022-07-30T04:46:48.665Z,61.84
2022-07-30T04:49:16.786Z,63.19
2022-07-30T04:51:45.132Z,63.34
2022-07-30T04:54:15.425Z,63.11
2022-07-30T04:56:53.638Z,62.93
2022-07-30T04:59:24.152Z,62.28
2022-07-30T05:01:52.523Z,61.02
2022-07-30T05:04:20.899Z,61.45
2022-07-30T05:06:48.836Z,62.96
2022-07-30T05:09:16.658Z,62.10
2022-07-30T05:11:55.070Z,60.80
2022-07-30T05:14:24.000Z,62.29
2022-07-30T05:16:51.705Z,60.04
2022-07-30T05:19:19.916Z,60.86
2022-07-30T05:21:48.299Z,61.12
2022-07-30T05:24:15.799Z,60.10
2022-07-30T05:26:43.666Z,60.45
2022-07-30T05:29:19.652Z,60.47
2022-07-30T05:31:48.440Z,60.67
2022-07-30T05:34:16.502Z,60.35
2022-07-30T05:36:45.141Z,60.08
2022-07-30T05:39:13.308Z,61.69
2022-07-30T05:41:42.198Z,61.02
2022-07-30T05:44:09.981Z,60.81
2022-07-30T05:46:37.949Z,60.13
2022-07-30T05:49:06.562Z,60.65
2022-07-30T05:51:34.369Z,61.45
2022-07-30T05:54:01.879Z,61.18
2022-07-30T05:56:31.700Z,61.65
2022-07-30T05:58:59.573Z,61.51
2022-07-30T06:01:28.717Z,61.27
2022-07-30T06:03:57.149Z,61.25
2022-07-30T06:06:35.250Z,61.15
2022-07-30T06:09:02.945Z,59.83
2022-07-30T06:11:30.363Z,58.09
2022-07-30T06:13:57.862Z,56.20
2022-07-30T06:16:25.663Z,58.63
2022-07-30T06:18:53.274Z,57.84
2022-07-30T06:21:21.671Z,56.46
2022-07-30T06:23:50.757Z,56.91
2022-07-30T06:26:18.857Z,57.66
2022-07-30T06:28:46.296Z,58.40
2022-07-30T06:31:14.972Z,58.05
2022-07-30T06:33:43.279Z,56.48
2022-07-30T06:36:14.017Z,56.38
2022-07-30T06:38:43.064Z,55.97
2022-07-30T06:41:11.025Z,54.12
2022-07-30T06:43:39.675Z,52.35
2022-07-30T06:46:10.414Z,52.47
2022-07-30T06:48:38.020Z,54.09
2022-07-30T06:51:05.602Z,53.59
2022-07-30T06:53:33.407Z,52.15
2022-07-30T06:56:14.783Z,53.95
2022-07-30T06:58:43.234Z,54.77
2022-07-30T07:01:13.216Z,52.39
2022-07-30T07:03:40.962Z,50.61
2022-07-30T07:06:08.827Z,50.34
2022-07-30T07:08:37.721Z,49.52
2022-07-30T07:11:05.865Z,50.37
2022-07-30T07:13:33.598Z,47.95
2022-07-30T07:16:02.519Z,48.10
2022-07-30T07:18:30.204Z,48.61
2022-07-30T07:20:58.019Z,48.49
2022-07-30T07:23:25.520Z,48.53
2022-07-30T07:26:09.060Z,50.36
2022-07-30T07:28:36.524Z,51.34
2022-07-30T07:31:04.281Z,49.70
2022-07-30T07:33:32.000Z,48.71
2022-07-30T07:35:59.415Z,50.55
2022-07-30T07:38:27.138Z,50.79
2022-07-30T07:40:55.034Z,51.15
2022-07-30T07:43:22.850Z,52.84
2022-07-30T07:45:50.862Z,52.24
2022-07-30T07:48:19.309Z,50.88
2022-07-30T07:50:47.060Z,51.40
2022-07-30T07:53:15.483Z,52.69
2022-07-30T07:55:43.183Z,52.18
2022-07-30T07:58:13.711Z,52.33
2022-07-30T08:00:46.916Z,51.94
2022-07-30T08:03:14.781Z,52.59
2022-07-30T08:05:58.088Z,52.76
2022-07-30T08:08:37.392Z,53.83
2022-07-30T08:11:08.609Z,52.61
2022-07-30T08:13:49.320Z,52.57
2022-07-30T08:16:30.744Z,52.55
2022-07-30T08:19:03.798Z,51.58
2022-07-30T08:21:31.485Z,51.14
2022-07-30T08:23:58.915Z,51.57
2022-07-30T08:26:27.123Z,51.19
2022-07-30T08:28:54.645Z,50.98
2022-07-30T08:31:22.465Z,51.54
2022-07-30T08:33:50.140Z,50.51
2022-07-30T08:36:18.948Z,50.78
2022-07-30T08:38:48.024Z,50.29
2022-07-30T08:41:19.222Z,50.03
2022-07-30T08:43:47.963Z,50.05
2022-07-30T08:46:18.357Z,51.70
2022-07-30T08:48:47.124Z,54.22
2022-07-30T08:51:17.357Z,56.83
2022-07-30T08:53:47.182Z,55.25
2022-07-30T08:56:14.673Z,54.74
2022-07-30T08:58:42.574Z,53.74
2022-07-30T09:01:10.352Z,54.54
2022-07-30T09:03:44.111Z,54.86
2022-07-30T09:06:11.858Z,56.23
2022-07-30T09:08:39.195Z,55.16
2022-07-30T09:11:06.656Z,54.37
2022-07-30T09:13:37.673Z,56.41
2022-07-30T09:16:06.354Z,56.58
2022-07-30T09:18:40.418Z,57.06
2022-07-30T09:21:29.201Z,56.86
2022-07-30T09:24:10.826Z,57.42
2022-07-30T09:27:01.771Z,58.01
2022-07-30T09:29:36.271Z,58.25
2022-07-30T09:32:18.549Z,58.59
2022-07-30T09:34:51.414Z,58.59
2022-07-30T09:37:20.415Z,57.92
2022-07-30T09:39:58.750Z,57.58
2022-07-30T09:42:28.585Z,57.96
2022-07-30T09:45:07.526Z,59.97
2022-07-30T09:47:42.438Z,65.41
2022-07-30T09:50:18.004Z,69.47
2022-07-30T09:53:11.775Z,71.42
2022-07-30T09:55:42.129Z,73.83
2022-07-30T10:01:00.399Z,73.77
2022-07-30T10:03:33.905Z,74.78
2022-07-30T10:06:38.018Z,74.68
2022-07-30T10:09:13.574Z,74.90
2022-07-30T10:11:41.977Z,73.02
2022-07-30T10:14:09.831Z,71.97
2022-07-30T10:16:37.408Z,72.49
2022-07-30T10:19:07.245Z,71.75
2022-07-30T10:21:49.710Z,72.65
2022-07-30T10:24:27.544Z,71.51
2022-07-30T10:26:57.523Z,71.91
2022-07-30T10:29:33.542Z,69.30
2022-07-30T10:32:02.520Z,69.99
2022-07-30T10:34:34.246Z,71.07
2022-07-30T10:37:06.666Z,72.20
2022-07-30T10:39:39.026Z,72.74
2022-07-30T10:42:38.394Z,72.18
2022-07-30T10:45:26.237Z,72.55
2022-07-30T10:47:55.229Z,74.90
2022-07-30T10:50:27.092Z,74.02
2022-07-30T10:52:56.912Z,71.78
2022-07-30T10:55:36.788Z,72.44
2022-07-30T10:58:14.289Z,72.16
2022-07-30T11:00:48.803Z,74.85
2022-07-30T11:03:18.260Z,74.73
2022-07-30T11:05:48.124Z,74.02
2022-07-30T11:08:35.892Z,71.81
2022-07-30T11:11:19.903Z,70.98
2022-07-30T11:13:54.596Z,72.07
2022-07-30T11:16:23.342Z,73.21
2022-07-30T11:19:55.987Z,73.50
2022-07-30T11:22:28.299Z,76.27
2022-07-30T11:24:58.187Z,75.18
2022-07-30T11:27:36.096Z,73.53
2022-07-30T11:30:25.794Z,73.31
2022-07-30T11:32:58.518Z,74.50
2022-07-30T11:35:34.590Z,74.77
2022-07-30T11:38:18.643Z,75.31
2022-07-30T11:40:49.836Z,74.43
2022-07-30T11:43:35.011Z,72.66
2022-07-30T11:46:29.590Z,73.30
2022-07-30T11:49:05.326Z,74.19
2022-07-30T11:51:43.871Z,77.43
2022-07-30T11:54:12.211Z,77.91
2022-07-30T11:56:50.588Z,76.65
2022-07-30T11:59:18.031Z,75.52
2022-07-30T12:01:50.267Z,74.85
2022-07-30T12:04:18.019Z,74.12
2022-07-30T12:06:46.495Z,73.31
2022-07-30T12:09:22.970Z,72.74
2022-07-30T12:11:50.652Z,72.49
2022-07-30T12:14:18.145Z,71.34
2022-07-30T12:16:54.096Z,74.03
2022-07-30T12:19:21.967Z,75.19
2022-07-30T12:21:53.069Z,72.23
2022-07-30T12:24:27.080Z,74.58
2022-07-30T12:27:07.044Z,76.24
2022-07-30T12:29:35.198Z,71.23
2022-07-30T12:32:03.318Z,71.12
2022-07-30T12:34:30.728Z,71.30
2022-07-30T12:37:08.106Z,72.67
2022-07-30T12:39:35.859Z,71.43
2022-07-30T12:42:03.635Z,70.38
2022-07-30T12:44:34.057Z,70.72
2022-07-30T12:47:21.318Z,71.51
2022-07-30T12:49:50.265Z,72.55
2022-07-30T12:52:28.628Z,68.49
2022-07-30T12:55:08.749Z,68.74
2022-07-30T12:57:52.396Z,70.09
2022-07-30T13:00:19.884Z,71.04
2022-07-30T13:02:47.817Z,68.12
2022-07-30T13:05:15.198Z,69.64
2022-07-30T13:07:58.725Z,67.62
2022-07-30T13:10:31.223Z,67.19
2022-07-30T13:12:59.863Z,66.37
2022-07-30T13:15:27.505Z,65.04
2022-07-30T13:17:54.890Z,64.34
2022-07-30T13:20:22.530Z,65.40
2022-07-30T13:22:50.217Z,66.33
2022-07-30T13:25:18.139Z,65.45
2022-07-30T13:27:45.578Z,66.52
2022-07-30T13:30:14.100Z,65.65
2022-07-30T13:32:41.513Z,65.64
2022-07-30T13:35:09.429Z,66.51
2022-07-30T13:37:38.161Z,65.83
2022-07-30T13:40:07.055Z,68.55
2022-07-30T13:42:34.864Z,69.06
2022-07-30T13:45:02.505Z,69.81
2022-07-30T13:47:29.962Z,68.30
2022-07-30T13:49:57.371Z,68.21
2022-07-30T13:52:25.043Z,65.99
2022-07-30T13:54:53.914Z,66.48
2022-07-30T13:57:21.302Z,68.49
2022-07-30T13:59:49.008Z,69.07
2022-07-30T14:02:16.402Z,68.20
2022-07-30T14:04:44.101Z,66.84
2022-07-30T14:07:11.495Z,66.71
2022-07-30T14:09:44.935Z,68.08
2022-07-30T14:12:14.849Z,70.26
2022-07-30T14:14:42.250Z,67.70
2022-07-30T14:17:09.634Z,67.46
2022-07-30T14:19:37.290Z,68.43
2022-07-30T14:22:04.776Z,68.90
2022-07-30T14:24:32.149Z,66.77
2022-07-30T14:27:00.285Z,67.66
2022-07-30T14:29:28.003Z,66.71
2022-07-30T14:31:55.572Z,66.49
2022-07-30T14:34:23.351Z,66.61
2022-07-30T14:36:50.856Z,63.79
2022-07-30T14:39:18.404Z,63.35
2022-07-30T14:41:46.246Z,66.34
2022-07-30T14:44:13.843Z,63.72
2022-07-30T14:46:52.376Z,64.20
2022-07-30T14:49:21.786Z,63.20
2022-07-30T14:51:50.376Z,64.54
2022-07-30T14:54:18.134Z,63.54
2022-07-30T14:56:45.878Z,64.95
2022-07-30T14:59:13.320Z,63.47
2022-07-30T15:01:41.952Z,62.32
2022-07-30T15:04:10.650Z,63.42
2022-07-30T15:06:38.374Z,62.00
2022-07-30T15:09:05.780Z,63.45
2022-07-30T15:11:44.996Z,64.15
2022-07-30T15:14:21.311Z,62.06
2022-07-30T15:16:49.012Z,60.95
2022-07-30T15:19:16.475Z,60.39
2022-07-30T15:21:44.868Z,61.13
2022-07-30T15:24:12.667Z,62.03
2022-07-30T15:26:40.076Z,59.64
2022-07-30T15:29:11.656Z,60.35
2022-07-30T15:31:41.174Z,58.11
2022-07-30T15:34:12.646Z,57.90
2022-07-30T15:36:40.094Z,56.94
2022-07-30T15:39:07.779Z,59.42
2022-07-30T15:41:36.642Z,60.76
2022-07-30T15:44:04.297Z,61.63
2022-07-30T15:46:31.958Z,59.72
2022-07-30T15:48:59.467Z,59.90
2022-07-30T15:51:27.878Z,60.83
2022-07-30T15:53:55.800Z,60.52
2022-07-30T15:56:24.379Z,59.48
2022-07-30T15:58:52.572Z,60.17
2022-07-30T16:01:20.513Z,59.84
2022-07-30T16:03:48.176Z,60.45
2022-07-30T16:06:15.583Z,60.13
2022-07-30T16:08:42.967Z,60.74
2022-07-30T16:11:11.168Z,59.23
2022-07-30T16:13:38.842Z,57.50
2022-07-30T16:16:06.235Z,57.65
2022-07-30T16:18:34.930Z,59.15
2022-07-30T16:21:02.449Z,58.72
2022-07-30T16:23:36.296Z,57.21
2022-07-30T16:26:04.854Z,56.16
2022-07-30T16:28:32.558Z,58.59
2022-07-30T16:30:59.968Z,56.08
2022-07-30T16:33:27.646Z,56.94
2022-07-30T16:35:55.332Z,55.63
2022-07-30T16:38:25.368Z,56.35
2022-07-30T16:40:53.059Z,56.68
2022-07-30T16:43:20.601Z,57.48
2022-07-30T16:45:48.469Z,57.44
2022-07-30T16:48:16.222Z,56.42
2022-07-30T16:50:44.692Z,55.76
2022-07-30T16:53:14.347Z,57.40
2022-07-30T16:55:45.917Z,56.80
2022-07-30T16:58:13.300Z,55.69
2022-07-30T17:00:40.934Z,55.53
2022-07-30T17:03:09.117Z,55.56
2022-07-30T17:05:37.835Z,55.87
2022-07-30T17:08:13.019Z,56.92
2022-07-30T17:10:41.605Z,56.84
2022-07-30T17:13:09.203Z,55.56
2022-07-30T17:15:36.885Z,55.43
2022-07-30T17:18:04.470Z,56.37
2022-07-30T17:20:32.182Z,56.54
2022-07-30T17:22:59.857Z,56.36
2022-07-30T17:25:27.752Z,57.35
2022-07-30T17:27:56.671Z,57.00
2022-07-30T17:30:25.126Z,56.56
2022-07-30T17:32:52.543Z,56.37
2022-07-30T17:35:20.265Z,56.47
2022-07-30T17:37:48.025Z,58.69
2022-07-30T17:40:28.176Z,58.06
2022-07-30T17:43:04.792Z,57.05
2022-07-30T17:45:36.291Z,57.79
2022-07-30T17:48:05.385Z,57.58
2022-07-30T17:50:33.829Z,56.37
2022-07-30T17:53:03.590Z,56.39
2022-07-30T17:55:35.005Z,57.36
2022-07-30T17:58:04.253Z,57.36
2022-07-30T18:00:32.206Z,57.12
2022-07-30T18:02:59.924Z,57.09
2022-07-30T18:05:28.645Z,57.69
2022-07-30T18:07:56.072Z,57.86
2022-07-30T18:10:23.797Z,58.30
2022-07-30T18:12:51.184Z,57.24
2022-07-30T18:15:19.420Z,58.24
2022-07-30T18:17:47.137Z,58.14
2022-07-30T18:20:14.855Z,59.11
2022-07-30T18:22:42.735Z,58.18
2022-07-30T18:25:18.811Z,57.60
2022-07-30T18:27:51.310Z,57.98
2022-07-30T18:30:19.002Z,60.22
2022-07-30T18:32:46.426Z,59.04
2022-07-30T18:35:15.180Z,59.41
2022-07-30T18:37:43.756Z,58.63
2022-07-30T18:40:13.013Z,58.44
2022-07-30T18:42:40.521Z,59.30
2022-07-30T18:45:09.128Z,59.48
2022-07-30T18:47:36.549Z,59.36
2022-07-30T18:50:04.337Z,58.46
2022-07-30T18:52:32.118Z,59.06
2022-07-30T18:54:59.575Z,58.44
2022-07-30T18:57:27.236Z,59.39
2022-07-30T18:59:54.910Z,59.95
2022-07-30T19:02:25.595Z,58.70
2022-07-30T19:04:53.380Z,59.05
2022-07-30T19:07:21.576Z,59.14
2022-07-30T19:09:49.416Z,58.59
2022-07-30T19:12:16.817Z,59.26
2022-07-30T19:14:44.672Z,59.23
2022-07-30T19:17:13.985Z,59.97
2022-07-30T19:19:42.689Z,59.73
2022-07-30T19:22:10.409Z,59.67
2022-07-30T19:24:38.023Z,60.62
2022-07-30T19:27:05.750Z,60.19
2022-07-30T19:29:33.413Z,60.53
2022-07-30T19:32:01.298Z,60.09
2022-07-30T19:34:28.915Z,61.42
2022-07-30T19:36:56.581Z,62.23
2022-07-30T19:39:23.986Z,62.04
2022-07-30T19:41:54.425Z,62.11
2022-07-30T19:44:22.224Z,62.23
2022-07-30T19:46:51.653Z,62.19
2022-07-30T19:49:19.846Z,61.44
2022-07-30T19:52:10.041Z,61.33
2022-07-30T19:54:37.285Z,61.77
2022-07-30T19:57:06.384Z,60.88
2022-07-30T19:59:46.461Z,60.13
2022-07-30T20:02:22.614Z,61.74
2022-07-30T20:04:50.492Z,62.27
2022-07-30T20:07:18.805Z,61.85
2022-07-30T20:09:48.557Z,63.18
2022-07-30T20:12:17.092Z,62.87
2022-07-30T20:14:44.963Z,63.32
2022-07-30T20:17:12.410Z,63.97
2022-07-30T20:19:48.106Z,63.89
2022-07-30T20:22:16.885Z,63.99
2022-07-30T20:24:45.419Z,64.07
2022-07-30T20:27:38.530Z,63.66
2022-07-30T20:30:01.439Z,63.05
2022-07-30T20:32:29.309Z,62.07
2022-07-30T20:34:57.240Z,62.46
2022-07-30T20:37:27.563Z,62.99
2022-07-30T20:39:55.535Z,62.21
2022-07-30T20:42:24.096Z,62.46
2022-07-30T20:44:54.105Z,63.07
2022-07-30T20:47:34.232Z,63.89
2022-07-30T20:50:10.313Z,62.78
2022-07-30T20:52:40.296Z,64.11
2022-07-30T20:55:09.413Z,63.95
2022-07-30T20:57:55.921Z,63.55
2022-07-30T21:00:25.455Z,64.09
2022-07-30T21:02:52.923Z,64.05
2022-07-30T21:05:20.838Z,64.65
2022-07-30T21:07:52.744Z,64.03
2022-07-30T21:10:21.712Z,64.31
2022-07-30T21:12:52.998Z,63.72
2022-07-30T21:15:24.554Z,63.34
2022-07-30T21:17:54.161Z,63.66
2022-07-30T21:20:28.094Z,63.63
2022-07-30T21:22:56.653Z,64.43
2022-07-30T21:25:32.562Z,64.46
2022-07-30T21:28:02.968Z,64.41
2022-07-30T21:30:31.288Z,64.72
2022-07-30T21:33:00.274Z,64.89
2022-07-30T21:35:32.131Z,63.79
2022-07-30T21:37:59.823Z,64.46
2022-07-30T21:40:27.773Z,64.74
2022-07-30T21:42:56.575Z,63.20
2022-07-30T21:45:27.593Z,63.28
2022-07-30T21:48:07.364Z,63.13
2022-07-30T21:50:35.237Z,64.57
2022-07-30T21:53:02.646Z,64.21
2022-07-30T21:55:34.054Z,63.17
2022-07-30T21:58:25.120Z,63.12
2022-07-30T22:00:55.528Z,62.62
2022-07-30T22:04:03.971Z,63.38
2022-07-30T22:06:12.616Z,64.64
2022-07-30T22:08:40.867Z,64.38
2022-07-30T22:11:09.182Z,63.73
2022-07-30T22:13:51.293Z,63.07
2022-07-30T22:16:22.218Z,64.33
2022-07-30T22:18:50.684Z,63.72
2022-07-30T22:21:19.635Z,64.34
2022-07-30T22:23:54.949Z,63.40
2022-07-30T22:26:27.313Z,64.98
2022-07-30T22:28:55.009Z,64.35
2022-07-30T22:31:22.405Z,63.11
2022-07-30T22:33:50.969Z,63.66
2022-07-30T22:36:19.925Z,63.80
2022-07-30T22:38:58.521Z,63.04
2022-07-30T22:41:28.889Z,64.54
2022-07-30T22:43:56.548Z,63.08
2022-07-30T22:46:30.612Z,63.27
2022-07-30T22:48:59.386Z,63.60
2022-07-30T22:52:01.936Z,63.99
2022-07-30T22:54:15.427Z,64.04
2022-07-30T22:56:42.896Z,64.56
2022-07-30T22:59:13.763Z,64.08
2022-07-30T23:01:43.665Z,63.18
2022-07-30T23:04:11.211Z,64.14
2022-07-30T23:06:41.118Z,63.60
2022-07-30T23:09:10.089Z,64.05
2022-07-30T23:11:38.864Z,63.95
2022-07-30T23:14:06.970Z,63.05
2022-07-30T23:16:35.854Z,62.91
2022-07-30T23:19:04.243Z,63.00
2022-07-30T23:21:32.426Z,64.42
2022-07-30T23:24:00.087Z,64.05
2022-07-30T23:26:27.489Z,64.61
2022-07-30T23:28:54.877Z,63.54
2022-07-30T23:31:26.699Z,62.59
2022-07-30T23:33:54.331Z,62.93
2022-07-30T23:36:22.521Z,63.75
2022-07-30T23:38:49.925Z,63.42
2022-07-30T23:41:30.397Z,64.15
2022-07-30T23:43:58.563Z,64.16
2022-07-30T23:46:25.938Z,63.52
2022-07-30T23:48:53.578Z,62.65
2022-07-30T23:51:21.275Z,63.16
2022-07-30T23:53:48.665Z,63.37
2022-07-30T23:56:16.971Z,63.38
2022-07-30T23:58:45.962Z,63.58
